Biggar, Canada
Current Conditions -  °F | °C
As of 4:00 AM on Thursday 27 Nov 2014 (Local Time) from CYQW Reporting Station
Overcast Overcast  
Wind Chill: -9°   Ceiling: 8500
Heat Index:   Visibility: 9mi
Dew Point:   Wind: 9mph
Humidity: 92%   Direction: 70°ENE
Pressure: 30.15"   Gusts: NA
Location:  52.05°N, 107.98°W
Report Text: CYQW 271000Z AUTO 07008KT 9SM OVC085 M15/M16 A3015 RMK SLP259
Loading
Personal Weather Stations






























Interactive Weather Map New forecast layout! Learn more

10-Day Weather Forecast

Advertisements
Track Severe Weather on mobile